PAKTPAWG

Guest
Details From PAKT - KETCHIKAN INTL
To PAWG - WRANGELL
Flight Number -
Tags generated
Created
Modified
Stats Distance 74 nm / 138 km
Max Altitude 3,400 ft / 1,036 m
Waypoints 3
Social Downloads 2
Likes 0
Share VATSIM

Download

Looking for another format? Having issues loading an existing format? Contact us
Advertisement - Login to hide

Notes

Basic altitude profile: - Ascent Rate: 2500ft/min - Ascent Speed: 250kts - Cruise Altitude: 35000ft - Cruise Speed: 420kts - Descent Rate: 1500ft/min - Descent Speed: 250kts Options: - Use NATs: yes - Use PACOTS: yes - Use low airways: yes - Use high airways: yes

Route

PAKT GESTI PAWG

ID Type Via Altitude Latitude Longitude Leg Dist Tot Dist Heading (true) Name
O PAKT APT - 0 ft / 0 m 55.35554˚ -131.71374˚ - 0 nm - KETCHIKAN INTL
GESTI FIX - 3,400 ft / 1,036 m 55.43263˚ -131.96400˚ 9 nm 9 nm 299° / 298° -
O PAWG APT - 0 ft / 0 m 56.48432˚ -132.36983˚ 64 nm 74 nm 348° / 348° WRANGELL

Altitude Profile

Advertisement - Login to hide

PAKT

Details ICAO PAKT (KTN)
Name KETCHIKAN INTL
Region USA (Alaska)
Timezone Unknown (UTC+0.0)
Stats Elevation 88 ft / 27 m (AMSL)
Location 55.355545° -131.713737°
Runways 1
Magnetic Variation 18.429° E

METAR

PAKT 230053Z 10004KT 7SM SCT009 BKN022 OVC037 11/09 A2995

Decode

TAF

PAKT 222329Z 2300/2324 13005KT P6SM -SHRA BKN025 OVC050 TEMPO 2300/2304 6SM -SHRA BR SCT015 OVC025 FM230900 32003KT P6SM VCSH OVC025 FM231600 29005KT P6SM BKN035 AMD LTD TO CLD VIS AND WIND 2306/2315

Decode

Departure Runways

ID Width Length Bearing (true) Bearing (mag) Surface Threshold Offset Overrun Length
11 150 ft / 46 m 7,485 ft / 2,281 m 135.66° 117.23° Asphalt 0 ft / 0 m 200 ft / 61 m
29 150 ft / 46 m 7,485 ft / 2,281 m 315.68° 297.25° Asphalt 0 ft / 0 m 100 ft / 30 m

PAWG

Details ICAO PAWG (WRG)
Name WRANGELL
Region USA (Alaska)
Timezone America/Juneau (UTC-8.0)
Stats Elevation 44 ft / 13 m (AMSL)
Location 56.484324° -132.369832°
Runways 1
Magnetic Variation 18.697° E

METAR

PAWG 230056Z 26004KT 10SM FEW020 BKN040 BKN060 11/08 A2996

Decode

TAF

PAWG 222329Z 2300/2324 09008KT P6SM VCSH BKN030 OVC050 TEMPO 2300/2304 6SM -SHRA BR SCT010 OVC030 FM230900 00000KT P6SM VCSH SCT020 OVC045 FM231600 28005KT P6SM VCSH BKN050 AMD LTD TO CLD VIS AND WIND 2306/2315

Decode

Destination Runways

ID Width Length Bearing (true) Bearing (mag) Surface Threshold Offset Overrun Length
10 150 ft / 46 m 5,983 ft / 1,824 m 121.43° 102.73° Asphalt 0 ft / 0 m 0 ft / 0 m
28 150 ft / 46 m 5,983 ft / 1,824 m 301.45° 282.75° Asphalt 0 ft / 0 m 0 ft / 0 m

Approach Navaids

Runway Type Ident Frequency Range Bearing (true) Bearing (mag) Slope Elevation
10 Localiser IRGL 108.50 MHz 18 nm / 33 km 112.18° 93.48° - 40 ft / 12 m (AMSL)
10 DME IRGL 108.50 MHz 18 nm / 33 km - - - 58 ft / 18 m (AMSL)

Popular Alternatives